createdAt,value
2018-10-18T00:00:49.315Z,6.58
2018-10-18T00:01:49.328Z,6.61
2018-10-18T00:02:49.351Z,6.51
2018-10-18T00:03:49.270Z,6.56
2018-10-18T00:04:49.286Z,6.52
2018-10-18T00:05:49.238Z,6.55
2018-10-18T00:06:49.224Z,6.51
2018-10-18T00:07:49.247Z,6.43
2018-10-18T00:08:49.228Z,6.37
2018-10-18T00:09:49.199Z,6.41
2018-10-18T00:10:49.203Z,6.34
2018-10-18T00:11:49.188Z,6.34
2018-10-18T00:12:49.172Z,6.41
2018-10-18T00:13:49.162Z,6.25
2018-10-18T00:14:49.157Z,6.30
2018-10-18T00:15:49.132Z,6.22
2018-10-18T00:16:49.130Z,6.27
2018-10-18T00:17:49.167Z,6.34
2018-10-18T00:18:49.107Z,6.27
2018-10-18T00:19:49.077Z,6.22
2018-10-18T00:20:49.069Z,6.31
2018-10-18T00:21:49.116Z,6.30
2018-10-18T00:22:49.046Z,6.27
2018-10-18T00:23:49.059Z,6.28
2018-10-18T00:24:49.015Z,6.37
2018-10-18T00:25:49.004Z,6.25
2018-10-18T00:26:49.003Z,6.33
2018-10-18T00:27:49.011Z,6.33
2018-10-18T00:28:48.991Z,6.27
2018-10-18T00:29:49.047Z,6.30
2018-10-18T00:30:48.953Z,6.37
2018-10-18T00:31:48.994Z,6.33
2018-10-18T00:32:48.967Z,6.28
2018-10-18T00:33:48.929Z,6.37
2018-10-18T00:34:48.912Z,6.37
2018-10-18T00:35:48.892Z,6.33
2018-10-18T00:36:48.885Z,6.28
2018-10-18T00:37:48.899Z,6.37
2018-10-18T00:38:48.874Z,6.25
2018-10-18T00:39:48.851Z,6.30
2018-10-18T00:40:48.842Z,6.27
2018-10-18T00:41:48.861Z,6.12
2018-10-18T00:42:48.833Z,6.11
2018-10-18T00:43:48.847Z,6.12
2018-10-18T00:44:48.820Z,6.01
2018-10-18T00:45:48.784Z,6.11
2018-10-18T00:46:48.805Z,6.11
2018-10-18T00:47:48.758Z,6.01
2018-10-18T00:48:48.815Z,6.09
2018-10-18T00:49:48.763Z,6.01
2018-10-18T00:50:48.749Z,5.99
2018-10-18T00:51:48.735Z,5.97
2018-10-18T00:52:48.711Z,5.97
2018-10-18T00:53:48.714Z,5.97
2018-10-18T00:54:48.705Z,5.93
2018-10-18T00:55:48.724Z,5.94
2018-10-18T00:56:48.659Z,5.91
2018-10-18T00:57:48.677Z,5.90
2018-10-18T00:58:48.669Z,5.93
2018-10-18T00:59:48.677Z,5.96
2018-10-18T01:00:48.643Z,5.94
2018-10-18T01:01:48.637Z,6.06
2018-10-18T01:02:48.591Z,5.99
2018-10-18T01:03:48.621Z,6.03
2018-10-18T01:04:48.632Z,6.09
2018-10-18T01:05:48.574Z,6.01
2018-10-18T01:06:48.620Z,5.99
2018-10-18T01:07:48.562Z,5.96
2018-10-18T01:08:48.525Z,5.90
2018-10-18T01:09:48.650Z,6.01
2018-10-18T01:10:48.531Z,5.96
2018-10-18T01:11:48.511Z,5.93
2018-10-18T01:12:48.483Z,5.96
2018-10-18T01:13:48.469Z,5.90
2018-10-18T01:14:48.462Z,6.01
2018-10-18T01:15:48.521Z,5.97
2018-10-18T01:16:48.445Z,5.94
2018-10-18T01:17:48.433Z,5.93
2018-10-18T01:18:48.472Z,5.93
2018-10-18T01:19:48.444Z,5.89
2018-10-18T01:20:48.426Z,5.90
2018-10-18T01:21:48.378Z,5.99
2018-10-18T01:22:48.369Z,5.89
2018-10-18T01:23:48.389Z,5.91
2018-10-18T01:24:48.372Z,5.82
2018-10-18T01:25:48.378Z,5.83
2018-10-18T01:26:48.376Z,5.89
2018-10-18T01:27:48.320Z,5.81
2018-10-18T01:28:48.333Z,5.83
2018-10-18T01:29:48.324Z,5.85
2018-10-18T01:30:48.304Z,5.90
2018-10-18T01:31:48.278Z,5.71
2018-10-18T01:32:48.312Z,5.85
2018-10-18T01:33:48.267Z,5.86
2018-10-18T01:34:48.265Z,5.85
2018-10-18T01:35:48.242Z,5.82
2018-10-18T01:36:48.267Z,5.79
2018-10-18T01:37:48.241Z,5.75
2018-10-18T01:38:48.199Z,5.85
2018-10-18T01:39:48.193Z,5.74
2018-10-18T01:40:48.237Z,5.82
2018-10-18T01:41:48.189Z,5.78
2018-10-18T01:42:48.182Z,5.74
2018-10-18T01:43:48.167Z,5.82
2018-10-18T01:44:48.155Z,5.76
2018-10-18T01:45:48.127Z,5.71
2018-10-18T01:46:48.181Z,5.83
2018-10-18T01:47:48.111Z,5.74
2018-10-18T01:48:48.078Z,5.76
2018-10-18T01:49:48.094Z,5.76
2018-10-18T01:50:48.058Z,5.67
2018-10-18T01:51:48.084Z,5.78
2018-10-18T01:52:48.076Z,5.72
2018-10-18T01:53:48.062Z,5.71
2018-10-18T01:54:48.038Z,5.76
2018-10-18T01:55:48.029Z,5.76
2018-10-18T01:56:48.012Z,5.75
2018-10-18T01:57:48.005Z,5.76
2018-10-18T01:58:48.063Z,5.65
2018-10-18T01:59:47.982Z,5.65
2018-10-18T02:00:47.984Z,5.65
2018-10-18T02:01:47.945Z,5.67
2018-10-18T02:02:47.956Z,5.67
2018-10-18T02:03:47.987Z,5.49
2018-10-18T02:04:47.906Z,5.54
2018-10-18T02:05:47.917Z,5.48
2018-10-18T02:06:47.907Z,5.46
2018-10-18T02:07:47.892Z,5.53
2018-10-18T02:08:47.874Z,5.49
2018-10-18T02:09:47.871Z,5.56
2018-10-18T02:10:47.861Z,5.56
2018-10-18T02:11:47.848Z,5.56
2018-10-18T02:12:47.834Z,5.46
2018-10-18T02:13:47.897Z,5.46
2018-10-18T02:14:47.796Z,5.51
2018-10-18T02:15:47.799Z,5.49
2018-10-18T02:16:47.783Z,5.48
2018-10-18T02:17:47.780Z,5.49
2018-10-18T02:18:47.776Z,5.48
2018-10-18T02:19:47.744Z,5.57
2018-10-18T02:20:47.730Z,5.54
2018-10-18T02:21:47.721Z,5.49
2018-10-18T02:22:47.706Z,5.48
2018-10-18T02:23:47.719Z,5.45
2018-10-18T02:24:47.702Z,5.48
2018-10-18T02:25:47.676Z,5.39
2018-10-18T02:26:47.762Z,5.43
2018-10-18T02:27:47.664Z,5.35
2018-10-18T02:28:47.644Z,5.36
2018-10-18T02:29:47.643Z,5.35
2018-10-18T02:30:47.620Z,5.25
2018-10-18T02:31:47.624Z,5.22
2018-10-18T02:32:47.596Z,5.33
2018-10-18T02:33:47.593Z,5.25
2018-10-18T02:34:47.621Z,5.27
2018-10-18T02:35:47.592Z,5.27
2018-10-18T02:36:47.572Z,5.25
2018-10-18T02:37:47.546Z,5.27
2018-10-18T02:38:47.544Z,5.25
2018-10-18T02:39:47.540Z,5.31
2018-10-18T02:40:47.515Z,5.25
2018-10-18T02:41:47.491Z,5.20
2018-10-18T02:42:47.493Z,5.20
2018-10-18T02:43:47.475Z,5.17
2018-10-18T02:44:47.459Z,5.17
2018-10-18T02:45:47.482Z,5.17
2018-10-18T02:46:47.442Z,5.13
2018-10-18T02:47:47.438Z,5.10
2018-10-18T02:48:47.459Z,5.17
2018-10-18T02:49:47.415Z,5.07
2018-10-18T02:50:47.407Z,5.09
2018-10-18T02:51:47.461Z,5.06
2018-10-18T02:52:47.376Z,5.13
2018-10-18T02:53:47.377Z,5.12
2018-10-18T02:54:47.372Z,5.10
2018-10-18T02:55:47.338Z,5.03
2018-10-18T02:56:47.347Z,5.00
2018-10-18T02:57:47.352Z,5.06
2018-10-18T02:58:47.309Z,4.97
2018-10-18T02:59:47.336Z,5.06
2018-10-18T03:00:47.301Z,5.06
2018-10-18T03:01:47.292Z,5.00
2018-10-18T03:02:47.282Z,5.02
2018-10-18T03:03:47.252Z,4.92
2018-10-18T03:04:47.290Z,5.02
2018-10-18T03:05:47.224Z,4.88
2018-10-18T03:06:47.241Z,4.92
2018-10-18T03:07:47.210Z,4.92
2018-10-18T03:08:47.193Z,4.91
2018-10-18T03:09:47.196Z,4.96
2018-10-18T03:10:47.191Z,5.00
2018-10-18T03:11:47.180Z,5.00
2018-10-18T03:12:47.150Z,4.99
2018-10-18T03:13:47.138Z,4.97
2018-10-18T03:14:47.126Z,4.99
2018-10-18T03:15:47.180Z,5.02
2018-10-18T03:16:47.113Z,4.89
2018-10-18T03:17:47.204Z,4.88
2018-10-18T03:18:47.090Z,4.89
2018-10-18T03:19:47.080Z,4.97
2018-10-18T03:20:47.113Z,4.77
2018-10-18T03:21:47.061Z,4.73
2018-10-18T03:22:47.060Z,4.77
2018-10-18T03:23:47.036Z,4.80
2018-10-18T03:24:47.029Z,4.75
2018-10-18T03:25:47.044Z,4.75
2018-10-18T03:26:47.002Z,4.73
2018-10-18T03:27:47.067Z,4.88
2018-10-18T03:28:46.996Z,4.91
2018-10-18T03:29:46.969Z,4.88
2018-10-18T03:30:46.962Z,4.92
2018-10-18T03:31:46.950Z,4.96
2018-10-18T03:32:46.943Z,4.94
2018-10-18T03:33:46.953Z,4.92
2018-10-18T03:34:46.920Z,4.99
2018-10-18T03:35:46.976Z,4.92
2018-10-18T03:36:46.911Z,4.99
2018-10-18T03:37:46.892Z,4.96
2018-10-18T03:38:46.868Z,4.91
2018-10-18T03:39:46.901Z,4.97
2018-10-18T03:40:46.854Z,5.02
2018-10-18T03:41:46.890Z,4.92
2018-10-18T03:42:46.820Z,4.91
2018-10-18T03:43:46.824Z,4.92
2018-10-18T03:44:46.801Z,4.92
2018-10-18T03:45:46.793Z,5.04
2018-10-18T03:46:46.766Z,4.96
2018-10-18T03:47:46.764Z,4.88
2018-10-18T03:48:46.748Z,4.86
2018-10-18T03:49:46.757Z,4.91
2018-10-18T03:50:46.766Z,4.91
2018-10-18T03:51:46.732Z,4.89
2018-10-18T03:52:46.711Z,4.91
2018-10-18T03:53:46.690Z,4.89
2018-10-18T03:54:46.691Z,5.00
2018-10-18T03:55:46.674Z,4.85
2018-10-18T03:56:46.657Z,5.02
2018-10-18T03:57:46.679Z,5.00
2018-10-18T03:58:46.677Z,4.99
2018-10-18T03:59:46.743Z,4.99
2018-10-18T04:00:46.617Z,4.94
2018-10-18T04:01:46.608Z,4.86
2018-10-18T04:02:46.599Z,4.94
2018-10-18T04:03:46.584Z,4.91
2018-10-18T04:04:46.596Z,4.86
2018-10-18T04:05:46.599Z,4.91
2018-10-18T04:06:46.549Z,4.97
2018-10-18T04:07:46.554Z,4.99
2018-10-18T04:08:46.545Z,4.88
2018-10-18T04:09:46.567Z,4.89
2018-10-18T04:10:46.509Z,4.91
2018-10-18T04:11:46.502Z,4.88
2018-10-18T04:12:46.602Z,4.80
2018-10-18T04:13:46.473Z,4.80
2018-10-18T04:14:46.497Z,4.85
2018-10-18T04:15:46.449Z,4.77
2018-10-18T04:16:46.440Z,4.80
2018-10-18T04:17:46.470Z,4.80
2018-10-18T04:18:46.439Z,4.73
2018-10-18T04:19:46.418Z,4.82
2018-10-18T04:20:46.444Z,4.75
2018-10-18T04:21:46.398Z,4.72
2018-10-18T04:22:46.393Z,4.72
2018-10-18T04:23:46.384Z,4.80
2018-10-18T04:24:46.354Z,4.73
2018-10-18T04:25:46.360Z,4.80
2018-10-18T04:26:46.325Z,4.78
2018-10-18T04:27:46.333Z,4.73
2018-10-18T04:28:46.306Z,4.72
2018-10-18T04:29:46.297Z,4.70
2018-10-18T04:30:46.309Z,4.78
2018-10-18T04:31:46.291Z,4.77
2018-10-18T04:32:46.275Z,4.67
2018-10-18T04:33:46.273Z,4.77
2018-10-18T04:34:46.239Z,4.65
2018-10-18T04:35:46.265Z,4.73
2018-10-18T04:36:46.283Z,4.72
2018-10-18T04:37:46.238Z,4.77
2018-10-18T04:38:46.201Z,4.75
2018-10-18T04:39:46.206Z,4.75
2018-10-18T04:40:46.291Z,4.77
2018-10-18T04:41:46.203Z,4.78
2018-10-18T04:42:46.158Z,4.78
2018-10-18T04:43:46.137Z,4.80
2018-10-18T04:44:46.143Z,4.80
2018-10-18T04:45:46.121Z,4.82
2018-10-18T04:46:46.105Z,4.75
2018-10-18T04:47:46.275Z,4.82
2018-10-18T04:48:46.136Z,4.78
2018-10-18T04:49:46.095Z,4.73
2018-10-18T04:50:46.107Z,4.78
2018-10-18T04:51:46.055Z,4.78
2018-10-18T04:52:46.073Z,4.75
2018-10-18T04:53:46.085Z,4.75
2018-10-18T04:54:46.023Z,4.78
2018-10-18T04:55:46.026Z,4.80
2018-10-18T04:56:46.058Z,4.80
2018-10-18T04:57:45.989Z,4.84
2018-10-18T04:58:45.992Z,4.75
2018-10-18T04:59:46.055Z,4.82
2018-10-18T05:00:45.982Z,4.78
2018-10-18T05:01:45.950Z,4.82
2018-10-18T05:02:46.081Z,4.75
2018-10-18T05:03:45.946Z,4.66
2018-10-18T05:04:45.954Z,4.62
2018-10-18T05:05:45.914Z,4.62
2018-10-18T05:06:45.926Z,4.58
2018-10-18T05:07:45.882Z,4.60
2018-10-18T05:08:45.900Z,4.60
2018-10-18T05:09:45.879Z,4.59
2018-10-18T05:10:45.871Z,4.58
2018-10-18T05:11:45.836Z,4.62
2018-10-18T05:12:45.943Z,4.60
2018-10-18T05:13:45.840Z,4.59
2018-10-18T05:14:45.825Z,4.51
2018-10-18T05:15:45.811Z,4.45
2018-10-18T05:16:45.789Z,4.42
2018-10-18T05:17:45.787Z,4.44
2018-10-18T05:18:45.818Z,4.50
2018-10-18T05:19:45.799Z,4.47
2018-10-18T05:20:45.741Z,4.54
2018-10-18T05:21:45.743Z,4.50
2018-10-18T05:22:45.715Z,4.50
2018-10-18T05:23:45.750Z,4.58
2018-10-18T05:24:45.753Z,4.58
2018-10-18T05:25:45.695Z,4.60
2018-10-18T05:26:45.661Z,4.60
2018-10-18T05:27:45.664Z,4.66
2018-10-18T05:28:45.662Z,4.66
2018-10-18T05:29:45.627Z,4.62
2018-10-18T05:30:45.691Z,4.65
2018-10-18T05:31:45.757Z,4.63
2018-10-18T05:32:45.596Z,4.70
2018-10-18T05:33:45.693Z,4.69
2018-10-18T05:34:45.637Z,4.63
2018-10-18T05:35:45.569Z,4.65
2018-10-18T05:36:45.554Z,4.70
2018-10-18T05:37:45.661Z,4.70
2018-10-18T05:38:45.528Z,4.69
2018-10-18T05:39:45.546Z,4.69
2018-10-18T05:40:45.514Z,4.60
2018-10-18T05:41:45.495Z,4.66
2018-10-18T05:42:45.502Z,4.63
2018-10-18T05:43:45.591Z,4.62
2018-10-18T05:44:45.491Z,4.60
2018-10-18T05:45:45.465Z,4.70
2018-10-18T05:46:45.530Z,4.67
2018-10-18T05:47:45.427Z,4.72
2018-10-18T05:48:45.490Z,4.72
2018-10-18T05:49:45.403Z,4.70
2018-10-18T05:50:45.401Z,4.72
2018-10-18T05:51:45.388Z,4.65
2018-10-18T05:52:45.391Z,4.77
2018-10-18T05:53:45.568Z,4.70
2018-10-18T05:54:45.391Z,4.67
2018-10-18T05:55:45.335Z,4.70
2018-10-18T05:56:45.332Z,4.66
2018-10-18T05:57:45.335Z,4.73
2018-10-18T05:58:45.314Z,4.77
2018-10-18T05:59:45.295Z,4.78
2018-10-18T06:00:45.294Z,4.72
2018-10-18T06:01:45.304Z,4.75
2018-10-18T06:02:45.258Z,4.70
2018-10-18T06:03:45.405Z,4.75
2018-10-18T06:04:45.234Z,4.75
2018-10-18T06:05:45.279Z,4.82
2018-10-18T06:06:45.324Z,4.72
2018-10-18T06:07:45.224Z,4.80
2018-10-18T06:08:45.273Z,4.73
2018-10-18T06:09:45.384Z,4.77
2018-10-18T06:10:45.188Z,4.77
2018-10-18T06:11:45.194Z,4.91
2018-10-18T06:12:45.177Z,4.92
2018-10-18T06:13:45.156Z,4.88
2018-10-18T06:14:45.202Z,5.00
2018-10-18T06:15:45.140Z,5.06
2018-10-18T06:16:45.109Z,5.00
2018-10-18T06:17:45.109Z,5.04
2018-10-18T06:18:45.093Z,5.13
2018-10-18T06:19:45.105Z,5.13
2018-10-18T06:20:45.055Z,5.17
2018-10-18T06:21:45.072Z,5.17
2018-10-18T06:22:45.139Z,5.24
2018-10-18T06:23:45.043Z,5.22
2018-10-18T06:24:45.021Z,5.28
2018-10-18T06:25:45.047Z,5.27
2018-10-18T06:26:44.994Z,5.27
2018-10-18T06:27:44.984Z,5.28
2018-10-18T06:28:44.987Z,5.35
2018-10-18T06:29:44.968Z,5.46
2018-10-18T06:30:44.942Z,5.42
2018-10-18T06:31:45.020Z,5.36
2018-10-18T06:32:44.946Z,5.49
2018-10-18T06:33:44.940Z,5.48
2018-10-18T06:34:44.907Z,5.58
2018-10-18T06:35:44.906Z,5.54
2018-10-18T06:36:44.891Z,5.60
2018-10-18T06:37:44.865Z,5.63
2018-10-18T06:38:44.888Z,5.67
2018-10-18T06:39:44.883Z,5.76
2018-10-18T06:40:44.836Z,5.74
2018-10-18T06:41:44.871Z,5.82
2018-10-18T06:42:44.815Z,5.82
2018-10-18T06:43:44.802Z,5.79
2018-10-18T06:44:44.817Z,5.93
2018-10-18T06:45:44.785Z,5.91
2018-10-18T06:46:44.821Z,5.89
2018-10-18T06:47:45.017Z,6.04
2018-10-18T06:48:44.753Z,6.04
2018-10-18T06:49:44.753Z,6.12
2018-10-18T06:50:44.726Z,6.11
2018-10-18T06:51:44.730Z,6.15
2018-10-18T06:52:44.712Z,6.18
2018-10-18T06:53:44.786Z,6.22
2018-10-18T06:54:44.726Z,6.30
2018-10-18T06:55:44.693Z,6.34
2018-10-18T06:56:44.656Z,6.31
2018-10-18T06:57:44.649Z,6.41
2018-10-18T06:58:44.643Z,6.44
2018-10-18T06:59:44.693Z,6.52
2018-10-18T07:00:44.623Z,6.54
2018-10-18T07:01:44.597Z,6.54
2018-10-18T07:02:44.589Z,6.59
2018-10-18T07:03:44.577Z,6.62
2018-10-18T07:04:44.584Z,6.54
2018-10-18T07:05:44.632Z,6.73
2018-10-18T07:06:44.550Z,6.70
2018-10-18T07:07:44.549Z,6.71
2018-10-18T07:08:44.526Z,6.74
2018-10-18T07:09:44.531Z,6.77
2018-10-18T07:10:44.541Z,6.85
2018-10-18T07:11:44.551Z,6.84
2018-10-18T07:12:44.508Z,6.92
2018-10-18T07:13:44.495Z,6.91
2018-10-18T07:14:44.576Z,6.99
2018-10-18T07:15:44.461Z,7.10
2018-10-18T07:16:44.467Z,7.07
2018-10-18T07:17:44.546Z,7.21
2018-10-18T07:18:44.446Z,7.21
2018-10-18T07:19:44.486Z,7.32
2018-10-18T07:20:44.435Z,7.34
2018-10-18T07:21:44.406Z,7.31
2018-10-18T07:22:44.397Z,7.35
2018-10-18T07:23:44.352Z,7.50
2018-10-18T07:24:44.349Z,7.46
2018-10-18T07:25:44.443Z,7.52
2018-10-18T07:26:44.354Z,7.50
2018-10-18T07:27:44.325Z,7.50
2018-10-18T07:28:44.311Z,7.61
2018-10-18T07:29:44.290Z,7.57
2018-10-18T07:30:44.279Z,7.57
2018-10-18T07:31:44.270Z,7.64
2018-10-18T07:32:44.273Z,7.71
2018-10-18T07:33:44.299Z,7.63
2018-10-18T07:34:44.272Z,7.74
2018-10-18T07:35:44.226Z,7.69
2018-10-18T07:36:44.224Z,7.75
2018-10-18T07:37:44.229Z,7.83
2018-10-18T07:38:44.287Z,7.69
2018-10-18T07:39:44.179Z,7.83
2018-10-18T07:40:44.226Z,7.90
2018-10-18T07:41:44.197Z,7.97
2018-10-18T07:42:44.216Z,7.97
2018-10-18T07:43:44.185Z,7.97
2018-10-18T07:44:44.127Z,8.01
2018-10-18T07:45:44.138Z,8.04
2018-10-18T07:46:44.187Z,8.12
2018-10-18T07:47:44.118Z,8.19
2018-10-18T07:48:44.077Z,8.23
2018-10-18T07:49:44.090Z,8.37
2018-10-18T07:50:44.081Z,8.33
2018-10-18T07:51:44.046Z,8.38
2018-10-18T07:52:44.063Z,8.47
2018-10-18T07:53:44.144Z,8.44
2018-10-18T07:54:44.089Z,8.47
2018-10-18T07:55:44.070Z,8.48
2018-10-18T07:56:44.018Z,8.47
2018-10-18T07:57:43.987Z,8.63
2018-10-18T07:58:44.071Z,8.71
2018-10-18T07:59:43.984Z,8.65
2018-10-18T08:00:44.094Z,8.70
2018-10-18T08:01:43.983Z,8.79
2018-10-18T08:02:43.960Z,8.83
2018-10-18T08:03:43.931Z,8.94
2018-10-18T08:04:43.905Z,8.92
2018-10-18T08:05:43.951Z,8.95
2018-10-18T08:06:43.894Z,9.04
2018-10-18T08:07:43.873Z,9.08
2018-10-18T08:08:43.875Z,9.14
2018-10-18T08:09:43.857Z,9.17
2018-10-18T08:10:43.873Z,9.28
2018-10-18T08:11:43.858Z,9.32
2018-10-18T08:12:43.820Z,9.35
2018-10-18T08:13:43.812Z,9.42
2018-10-18T08:14:43.811Z,9.47
2018-10-18T08:15:43.823Z,9.56
2018-10-18T08:16:43.899Z,9.65
2018-10-18T08:17:43.765Z,9.65
2018-10-18T08:18:43.759Z,9.69
2018-10-18T08:19:43.736Z,9.71
2018-10-18T08:20:43.727Z,9.78
2018-10-18T08:21:43.711Z,9.86
2018-10-18T08:22:43.808Z,9.89
2018-10-18T08:23:43.710Z,9.94
2018-10-18T08:24:43.725Z,9.90
2018-10-18T08:25:43.686Z,10.02
2018-10-18T08:26:43.659Z,10.02
2018-10-18T08:27:43.661Z,10.09
2018-10-18T08:28:43.646Z,10.20
2018-10-18T08:29:43.617Z,10.26
2018-10-18T08:30:43.618Z,10.25
2018-10-18T08:31:43.669Z,10.33
2018-10-18T08:32:43.632Z,10.41
2018-10-18T08:33:43.586Z,10.47
2018-10-18T08:34:43.581Z,10.55
2018-10-18T08:35:43.552Z,10.56
2018-10-18T08:36:43.666Z,10.56
2018-10-18T08:37:43.715Z,10.70
2018-10-18T08:38:43.543Z,10.73
2018-10-18T08:39:43.554Z,10.74
2018-10-18T08:40:43.493Z,10.81
2018-10-18T08:41:43.520Z,10.81
2018-10-18T08:42:43.485Z,10.88
2018-10-18T08:43:43.472Z,10.92
2018-10-18T08:44:43.453Z,10.94
2018-10-18T08:45:43.442Z,10.94
2018-10-18T08:46:43.430Z,10.99
2018-10-18T08:47:43.421Z,11.09
2018-10-18T08:48:43.409Z,11.10
2018-10-18T08:49:43.434Z,11.11
2018-10-18T08:50:43.381Z,11.15
2018-10-18T08:51:43.373Z,11.27
2018-10-18T08:52:43.446Z,11.27
2018-10-18T08:53:43.356Z,11.39
2018-10-18T08:54:43.339Z,11.37
2018-10-18T08:55:43.332Z,11.44
2018-10-18T08:56:43.322Z,11.51
2018-10-18T08:57:43.306Z,11.54
2018-10-18T08:58:43.373Z,11.61
2018-10-18T08:59:43.284Z,11.67
2018-10-18T09:00:43.317Z,11.67
2018-10-18T09:01:43.279Z,11.69
2018-10-18T09:02:43.255Z,11.76
2018-10-18T09:03:43.279Z,11.86
2018-10-18T09:04:43.229Z,11.86
2018-10-18T09:05:43.255Z,11.95
2018-10-18T09:06:43.208Z,11.98
2018-10-18T09:07:43.212Z,11.99
2018-10-18T09:08:43.185Z,12.14
2018-10-18T09:09:43.224Z,12.20
2018-10-18T09:10:43.163Z,12.29
2018-10-18T09:11:43.154Z,12.31
2018-10-18T09:12:43.178Z,12.39
2018-10-18T09:13:43.129Z,12.47
2018-10-18T09:14:43.111Z,12.52
2018-10-18T09:15:43.246Z,12.56
2018-10-18T09:16:43.093Z,12.62
2018-10-18T09:17:43.091Z,12.71
2018-10-18T09:18:43.083Z,12.72
2018-10-18T09:19:43.088Z,12.79
2018-10-18T09:20:43.057Z,12.90
2018-10-18T09:21:43.038Z,12.95
2018-10-18T09:22:43.058Z,13.01
2018-10-18T09:23:43.046Z,13.12
2018-10-18T09:24:43.012Z,13.25
2018-10-18T09:25:43.032Z,13.23
2018-10-18T09:26:42.973Z,13.29
2018-10-18T09:27:42.994Z,13.32
2018-10-18T09:28:42.968Z,13.33
2018-10-18T09:29:42.946Z,13.44
2018-10-18T09:30:42.962Z,13.48
2018-10-18T09:31:42.925Z,13.49
2018-10-18T09:32:42.915Z,13.54
2018-10-18T09:33:42.901Z,13.66
2018-10-18T09:34:42.978Z,13.78
2018-10-18T09:35:42.891Z,13.85
2018-10-18T09:36:42.874Z,13.91
2018-10-18T09:37:42.898Z,13.91
2018-10-18T09:38:42.885Z,14.04
2018-10-18T09:39:42.840Z,14.10
2018-10-18T09:40:42.824Z,14.06
2018-10-18T09:41:42.845Z,14.28
2018-10-18T09:42:42.811Z,14.25
2018-10-18T09:43:42.794Z,14.24
2018-10-18T09:44:42.832Z,14.43
2018-10-18T09:45:42.804Z,14.40
2018-10-18T09:46:42.760Z,14.45
2018-10-18T09:47:42.784Z,14.45
2018-10-18T09:48:42.746Z,14.50
2018-10-18T09:49:42.726Z,14.58
2018-10-18T09:50:42.715Z,14.55
2018-10-18T09:51:42.720Z,14.60
2018-10-18T09:52:43.938Z,14.61
2018-10-18T09:53:42.673Z,14.70
2018-10-18T09:54:42.680Z,14.72
2018-10-18T09:55:42.675Z,14.72
2018-10-18T09:56:42.652Z,14.72
2018-10-18T09:57:42.676Z,14.69
2018-10-18T09:58:42.621Z,14.68
2018-10-18T09:59:42.613Z,14.68
2018-10-18T10:00:42.600Z,14.69
2018-10-18T10:01:42.582Z,14.70
2018-10-18T10:02:42.612Z,14.68
2018-10-18T10:03:42.579Z,14.72
2018-10-18T10:04:42.550Z,14.68
2018-10-18T10:05:42.562Z,14.69
2018-10-18T10:06:42.557Z,14.68
2018-10-18T10:07:42.543Z,14.80
2018-10-18T10:08:42.519Z,14.92
2018-10-18T10:09:42.512Z,14.84
2018-10-18T10:10:42.508Z,14.94
2018-10-18T10:11:42.496Z,14.96
2018-10-18T10:12:42.500Z,15.06
2018-10-18T10:13:42.526Z,15.13
2018-10-18T10:14:42.442Z,15.01
2018-10-18T10:15:42.434Z,15.03
2018-10-18T10:16:42.425Z,15.13
2018-10-18T10:17:42.541Z,15.23
2018-10-18T10:18:42.414Z,15.14
2018-10-18T10:19:42.395Z,15.25
2018-10-18T10:20:42.378Z,15.27
2018-10-18T10:21:42.438Z,15.36
2018-10-18T10:22:42.361Z,15.36
2018-10-18T10:23:42.360Z,15.44
2018-10-18T10:24:42.369Z,15.43
2018-10-18T10:25:42.316Z,15.44
2018-10-18T10:26:42.311Z,15.53
2018-10-18T10:27:42.293Z,15.54
2018-10-18T10:28:42.306Z,15.53
2018-10-18T10:29:42.326Z,15.62
2018-10-18T10:30:42.277Z,15.65
2018-10-18T10:31:42.250Z,15.64
2018-10-18T10:32:42.324Z,15.68
2018-10-18T10:33:42.239Z,15.80
2018-10-18T10:34:42.249Z,15.82
2018-10-18T10:35:42.348Z,15.75
2018-10-18T10:36:42.269Z,15.75
2018-10-18T10:37:42.187Z,15.80
2018-10-18T10:38:42.178Z,15.80
2018-10-18T10:39:42.232Z,15.89
2018-10-18T10:40:42.259Z,15.86
2018-10-18T10:41:42.142Z,15.86
2018-10-18T10:42:42.195Z,15.82
2018-10-18T10:43:42.116Z,15.86
2018-10-18T10:44:42.217Z,15.80
2018-10-18T10:45:42.109Z,15.86
2018-10-18T10:46:42.090Z,15.92
2018-10-18T10:47:42.071Z,15.94
2018-10-18T10:48:42.095Z,15.90
2018-10-18T10:49:42.058Z,16.04
2018-10-18T10:50:42.040Z,16.08
2018-10-18T10:51:42.032Z,16.05
2018-10-18T10:52:42.026Z,16.09
2018-10-18T10:53:42.043Z,16.01
2018-10-18T10:54:41.998Z,16.14
2018-10-18T10:55:42.015Z,16.14
2018-10-18T10:56:41.980Z,16.20
2018-10-18T10:57:41.969Z,16.20
2018-10-18T10:58:41.957Z,16.27
2018-10-18T10:59:41.953Z,16.31
2018-10-18T11:00:42.016Z,16.43
2018-10-18T11:01:41.923Z,16.39
2018-10-18T11:02:41.911Z,16.41
2018-10-18T11:03:41.915Z,16.45
2018-10-18T11:04:41.923Z,16.49
2018-10-18T11:05:41.876Z,16.48
2018-10-18T11:06:41.869Z,16.57
2018-10-18T11:07:41.859Z,16.56
2018-10-18T11:08:41.868Z,16.63
2018-10-18T11:09:41.906Z,16.58
2018-10-18T11:10:41.829Z,16.63
2018-10-18T11:11:41.817Z,16.60
2018-10-18T11:12:41.892Z,16.70
2018-10-18T11:13:41.804Z,16.75
2018-10-18T11:14:41.804Z,16.70
2018-10-18T11:15:41.763Z,16.85
2018-10-18T11:16:41.753Z,16.81
2018-10-18T11:17:41.783Z,16.82
2018-10-18T11:18:41.835Z,16.85
2018-10-18T11:19:41.716Z,16.78
2018-10-18T11:20:41.712Z,16.85
2018-10-18T11:21:41.802Z,16.71
2018-10-18T11:22:41.682Z,16.82
2018-10-18T11:23:41.677Z,16.78
2018-10-18T11:24:41.785Z,16.83
2018-10-18T11:25:41.669Z,16.86
2018-10-18T11:26:41.641Z,16.78
2018-10-18T11:27:41.657Z,16.94
2018-10-18T11:28:41.659Z,16.94
2018-10-18T11:29:41.607Z,17.00
2018-10-18T11:30:41.595Z,16.98
2018-10-18T11:31:41.606Z,17.06
2018-10-18T11:32:41.580Z,17.08
2018-10-18T11:33:41.565Z,17.16
2018-10-18T11:34:41.571Z,17.16
2018-10-18T11:35:41.570Z,17.23
2018-10-18T11:36:41.550Z,17.28
2018-10-18T11:37:41.524Z,17.23
2018-10-18T11:38:41.510Z,17.37
2018-10-18T11:39:41.498Z,17.30
2018-10-18T11:40:41.495Z,17.25
2018-10-18T11:41:41.477Z,17.25
2018-10-18T11:42:41.586Z,17.25
2018-10-18T11:43:41.456Z,17.22
2018-10-18T11:44:41.495Z,17.30
2018-10-18T11:45:41.450Z,17.34
2018-10-18T11:46:41.423Z,17.30
2018-10-18T11:47:41.416Z,17.37
2018-10-18T11:48:41.415Z,17.37
2018-10-18T11:49:41.405Z,17.55
2018-10-18T11:50:41.411Z,17.48
2018-10-18T11:51:41.501Z,17.58
2018-10-18T11:52:41.359Z,17.56
2018-10-18T11:53:41.336Z,17.58
2018-10-18T11:54:41.331Z,17.71
2018-10-18T11:55:41.315Z,17.71
2018-10-18T11:56:41.356Z,17.68
2018-10-18T11:57:41.321Z,17.64
2018-10-18T11:58:41.277Z,17.59
2018-10-18T11:59:41.286Z,17.63
2018-10-18T12:00:41.264Z,17.72
2018-10-18T12:01:41.274Z,17.59
2018-10-18T12:02:41.321Z,17.59
2018-10-18T12:03:41.304Z,17.59
2018-10-18T12:04:41.211Z,17.59
2018-10-18T12:05:41.726Z,17.74
2018-10-18T12:06:41.202Z,17.68
2018-10-18T12:07:41.206Z,17.77
2018-10-18T12:08:41.175Z,17.74
2018-10-18T12:09:41.177Z,17.77
2018-10-18T12:10:41.149Z,17.74
2018-10-18T12:11:41.138Z,17.74
2018-10-18T12:12:41.145Z,17.72
2018-10-18T12:13:41.135Z,17.79
2018-10-18T12:14:41.150Z,17.89
2018-10-18T12:15:41.144Z,17.93
2018-10-18T12:16:41.148Z,17.95
2018-10-18T12:17:41.111Z,17.92
2018-10-18T12:18:41.115Z,18.05
2018-10-18T12:19:41.048Z,18.10
2018-10-18T12:20:41.080Z,18.05
2018-10-18T12:21:41.022Z,18.08
2018-10-18T12:22:41.019Z,18.12
2018-10-18T12:23:41.007Z,18.14
2018-10-18T12:24:40.991Z,18.08
2018-10-18T12:25:40.984Z,18.07
2018-10-18T12:26:41.036Z,18.12
2018-10-18T12:27:40.986Z,18.05
2018-10-18T12:28:40.949Z,18.12
2018-10-18T12:29:40.980Z,18.10
2018-10-18T12:30:40.926Z,18.11
2018-10-18T12:31:40.926Z,18.10
2018-10-18T12:32:40.902Z,18.11
2018-10-18T12:33:40.889Z,18.07
2018-10-18T12:34:40.976Z,18.14
2018-10-18T12:35:40.876Z,18.08
2018-10-18T12:36:40.855Z,18.02
2018-10-18T12:37:40.940Z,18.10
2018-10-18T12:38:40.841Z,18.23
2018-10-18T12:39:41.003Z,18.07
2018-10-18T12:40:40.870Z,18.20
2018-10-18T12:41:40.869Z,18.11
2018-10-18T12:42:40.816Z,18.21
2018-10-18T12:43:40.782Z,18.17
2018-10-18T12:44:40.775Z,18.14
2018-10-18T12:45:40.828Z,18.25
2018-10-18T12:46:40.746Z,18.12
2018-10-18T12:47:40.740Z,18.18
2018-10-18T12:48:40.831Z,18.17
2018-10-18T12:49:40.709Z,18.15
2018-10-18T12:50:40.710Z,18.15
2018-10-18T12:51:40.703Z,18.26
2018-10-18T12:52:40.675Z,18.29
2018-10-18T12:53:40.670Z,18.27
2018-10-18T12:54:40.746Z,18.33
2018-10-18T12:55:40.694Z,18.23
2018-10-18T12:56:40.638Z,18.33
2018-10-18T12:57:40.649Z,18.27
2018-10-18T12:58:40.612Z,18.26
2018-10-18T12:59:40.631Z,18.25
2018-10-18T13:00:40.600Z,18.32
2018-10-18T13:01:40.584Z,18.25
2018-10-18T13:02:40.582Z,18.23
2018-10-18T13:03:40.573Z,18.35
2018-10-18T13:04:40.592Z,18.36
2018-10-18T13:05:40.539Z,18.32
2018-10-18T13:06:40.539Z,18.32
2018-10-18T13:07:40.515Z,18.36
2018-10-18T13:08:40.498Z,18.36